createdAt,value
2022-07-27T00:00:59.598Z,100914.13
2022-07-27T00:03:26.759Z,100915.34
2022-07-27T00:05:53.868Z,100920.88
2022-07-27T00:08:22.312Z,100914.94
2022-07-27T00:10:50.440Z,100920.16
2022-07-27T00:13:17.568Z,100915.78
2022-07-27T00:15:44.703Z,100920.41
2022-07-27T00:18:11.965Z,100925.00
2022-07-27T00:20:39.968Z,100924.13
2022-07-27T00:23:07.296Z,100926.44
2022-07-27T00:25:35.183Z,100924.75
2022-07-27T00:28:03.627Z,100928.34
2022-07-27T00:30:30.739Z,100922.44
2022-07-27T00:32:57.975Z,100935.59
2022-07-27T00:35:25.412Z,100919.31
2022-07-27T00:37:52.882Z,100930.16
2022-07-27T00:40:20.006Z,100914.69
2022-07-27T00:42:47.090Z,100921.91
2022-07-27T00:45:14.273Z,100924.22
2022-07-27T00:47:41.510Z,100909.00
2022-07-27T00:50:09.255Z,100912.00
2022-07-27T00:52:38.190Z,100916.06
2022-07-27T00:55:06.163Z,100917.56
2022-07-27T00:57:33.337Z,100921.63
2022-07-27T01:00:21.328Z,100924.75
2022-07-27T01:06:57.497Z,100926.97
2022-07-27T01:09:43.533Z,100922.84
2022-07-27T01:12:14.957Z,100919.56
2022-07-27T01:14:42.088Z,100918.84
2022-07-27T01:17:09.324Z,100923.44
2022-07-27T01:19:36.621Z,100926.38
2022-07-27T01:22:04.977Z,100924.94
2022-07-27T01:24:32.349Z,100925.63
2022-07-27T01:27:01.676Z,100923.31
2022-07-27T01:29:29.353Z,100930.50
2022-07-27T01:31:56.839Z,100929.03
2022-07-27T01:34:24.209Z,100923.34
2022-07-27T01:36:51.296Z,100927.16
2022-07-27T01:39:19.360Z,100927.16
2022-07-27T01:41:46.601Z,100930.13
2022-07-27T01:44:14.162Z,100926.97
2022-07-27T01:46:41.318Z,100937.06
2022-07-27T01:49:08.945Z,100935.59
2022-07-27T01:51:36.503Z,100942.06
2022-07-27T01:54:03.749Z,100939.72
2022-07-27T01:56:30.836Z,100938.28
2022-07-27T01:58:58.950Z,100930.66
2022-07-27T02:01:26.211Z,100925.63
2022-07-27T02:03:53.403Z,100942.56
2022-07-27T02:06:20.463Z,100934.19
2022-07-27T02:08:47.561Z,100940.75
2022-07-27T02:11:32.964Z,100933.03
2022-07-27T02:14:00.095Z,100934.06
2022-07-27T02:16:27.207Z,100930.78
2022-07-27T02:18:55.630Z,100932.06
2022-07-27T02:21:22.714Z,100926.97
2022-07-27T02:23:49.809Z,100925.50
2022-07-27T02:26:16.883Z,100928.56
2022-07-27T02:28:44.055Z,100933.84
2022-07-27T02:31:11.173Z,100926.22
2022-07-27T02:33:38.278Z,100936.16
2022-07-27T02:36:05.598Z,100936.28
2022-07-27T02:38:32.739Z,100933.84
2022-07-27T02:40:59.838Z,100935.75
2022-07-27T02:43:26.942Z,100947.38
2022-07-27T02:45:54.083Z,100946.84
2022-07-27T02:48:21.607Z,100945.25
2022-07-27T02:50:48.756Z,100946.41
2022-07-27T02:53:15.849Z,100945.75
2022-07-27T02:55:42.962Z,100938.97
2022-07-27T02:58:10.087Z,100941.75
2022-07-27T03:00:37.168Z,100939.16
2022-07-27T03:03:04.271Z,100943.72
2022-07-27T03:05:31.479Z,100942.13
2022-07-27T03:07:58.576Z,100935.16
2022-07-27T03:10:25.643Z,100936.00
2022-07-27T03:12:52.744Z,100940.53
2022-07-27T03:15:19.835Z,100945.91
2022-07-27T03:17:47.378Z,100946.97
2022-07-27T03:20:14.632Z,100953.22
2022-07-27T03:22:41.945Z,100948.13
2022-07-27T03:25:09.531Z,100954.38
2022-07-27T03:27:36.818Z,100941.16
2022-07-27T03:30:05.346Z,100950.78
2022-07-27T03:32:32.578Z,100953.41
2022-07-27T03:34:59.674Z,100954.69
2022-07-27T03:37:26.818Z,100955.63
2022-07-27T03:39:53.928Z,100962.06
2022-07-27T03:42:21.065Z,100960.25
2022-07-27T03:44:48.151Z,100957.31
2022-07-27T03:47:15.230Z,100961.28
2022-07-27T03:49:42.309Z,100954.97
2022-07-27T03:52:11.996Z,100960.16
2022-07-27T03:54:42.869Z,100963.63
2022-07-27T03:57:09.943Z,100957.50
2022-07-27T03:59:37.046Z,100964.59
2022-07-27T04:02:04.901Z,100967.13
2022-07-27T04:04:32.051Z,100961.75
2022-07-27T04:06:59.891Z,100963.56
2022-07-27T04:09:27.080Z,100962.91
2022-07-27T04:11:56.010Z,100967.25
2022-07-27T04:14:23.087Z,100969.59
2022-07-27T04:16:50.467Z,100963.44
2022-07-27T04:19:17.634Z,100957.50
2022-07-27T04:21:44.765Z,100957.50
2022-07-27T04:24:12.214Z,100959.31
2022-07-27T04:26:39.539Z,100959.19
2022-07-27T04:29:06.741Z,100962.91
2022-07-27T04:31:33.899Z,100954.13
2022-07-27T04:34:01.002Z,100962.91
2022-07-27T04:36:28.142Z,100957.50
2022-07-27T04:38:55.235Z,100955.63
2022-07-27T04:41:22.339Z,100950.13
2022-07-27T04:43:58.570Z,100948.03
2022-07-27T04:46:27.137Z,100943.38
2022-07-27T04:48:54.325Z,100940.31
2022-07-27T04:51:21.741Z,100944.16
2022-07-27T04:53:58.111Z,100950.31
2022-07-27T04:56:26.723Z,100949.59
2022-07-27T04:58:54.861Z,100952.34
2022-07-27T05:01:23.313Z,100954.38
2022-07-27T05:03:50.669Z,100957.69
2022-07-27T05:06:18.042Z,100952.81
2022-07-27T05:08:45.154Z,100965.84
2022-07-27T05:11:12.519Z,100952.28
2022-07-27T05:13:40.572Z,100962.56
2022-07-27T05:16:11.312Z,100962.16
2022-07-27T05:18:38.969Z,100965.34
2022-07-27T05:21:06.801Z,100957.91
2022-07-27T05:23:34.261Z,100969.56
2022-07-27T05:26:01.445Z,100969.16
2022-07-27T05:28:29.344Z,100976.56
2022-07-27T05:30:56.720Z,100974.66
2022-07-27T05:33:23.846Z,100974.34
2022-07-27T05:35:51.000Z,100987.56
2022-07-27T05:38:18.092Z,100982.28
2022-07-27T05:40:46.115Z,100994.47
2022-07-27T05:43:13.492Z,100983.75
2022-07-27T05:45:40.631Z,100988.66
2022-07-27T05:48:08.750Z,100995.44
2022-07-27T05:50:35.914Z,101001.38
2022-07-27T05:53:03.665Z,101004.22
2022-07-27T05:55:30.798Z,101009.66
2022-07-27T05:57:57.976Z,101007.84
2022-07-27T06:00:25.080Z,101011.34
2022-07-27T06:02:52.197Z,101010.38
2022-07-27T06:05:19.336Z,101006.88
2022-07-27T06:08:08.716Z,101007.84
2022-07-27T06:10:37.572Z,101010.03
2022-07-27T06:13:06.155Z,101007.50
2022-07-27T06:15:33.561Z,101011.91
2022-07-27T06:18:00.851Z,101014.78
2022-07-27T06:20:28.191Z,101019.81
2022-07-27T06:22:57.740Z,101019.16
2022-07-27T06:25:34.573Z,101004.19
2022-07-27T06:28:06.546Z,101011.16
2022-07-27T06:30:33.863Z,101003.94
2022-07-27T06:33:05.019Z,101005.69
2022-07-27T06:35:34.023Z,101003.63
2022-07-27T06:38:01.412Z,101015.47
2022-07-27T06:40:29.918Z,101008.00
2022-07-27T06:42:58.339Z,101007.34
2022-07-27T06:45:27.022Z,101008.81
2022-07-27T06:47:54.184Z,101019.38
2022-07-27T06:50:21.590Z,101022.75
2022-07-27T06:52:49.477Z,101015.63
2022-07-27T06:55:16.767Z,101017.16
2022-07-27T06:57:43.850Z,101014.91
2022-07-27T07:00:11.946Z,101027.06
2022-07-27T07:02:40.183Z,101010.84
2022-07-27T07:05:07.378Z,101021.50
2022-07-27T07:07:34.482Z,101020.47
2022-07-27T07:10:01.963Z,101025.13
2022-07-27T07:12:29.021Z,101024.66
2022-07-27T07:14:56.083Z,101029.13
2022-07-27T07:17:23.163Z,101019.25
2022-07-27T07:19:50.404Z,101024.91
2022-07-27T07:22:17.577Z,101031.59
2022-07-27T07:24:44.664Z,101023.25
2022-07-27T07:27:11.854Z,101023.50
2022-07-27T07:29:38.997Z,101022.91
2022-07-27T07:32:06.398Z,101017.69
2022-07-27T07:34:33.546Z,101013.69
2022-07-27T07:37:00.671Z,101030.38
2022-07-27T07:39:31.413Z,101031.72
2022-07-27T07:41:58.784Z,101024.22
2022-07-27T07:44:26.317Z,101025.88
2022-07-27T07:46:53.527Z,101025.13
2022-07-27T07:49:39.869Z,101023.72
2022-07-27T07:52:07.914Z,101034.97
2022-07-27T07:54:35.030Z,101029.53
2022-07-27T07:57:02.142Z,101040.38
2022-07-27T07:59:29.262Z,101028.41
2022-07-27T08:01:56.609Z,101024.59
2022-07-27T08:04:24.010Z,101024.22
2022-07-27T08:06:51.128Z,101030.53
2022-07-27T08:09:18.196Z,101024.25
2022-07-27T08:11:45.368Z,101033.03
2022-07-27T08:14:12.505Z,101027.09
2022-07-27T08:16:40.031Z,101029.31
2022-07-27T08:19:09.520Z,101042.28
2022-07-27T08:21:36.828Z,101042.31
2022-07-27T08:24:03.937Z,101041.25
2022-07-27T08:26:31.050Z,101047.66
2022-07-27T08:28:59.454Z,101039.91
2022-07-27T08:31:52.450Z,101045.59
2022-07-27T08:34:20.526Z,101046.81
2022-07-27T08:36:47.587Z,101043.59
2022-07-27T08:39:41.378Z,101049.97
2022-07-27T08:42:06.146Z,101048.75
2022-07-27T08:44:33.623Z,101058.84
2022-07-27T08:47:03.638Z,101057.44
2022-07-27T08:49:42.397Z,101049.94
2022-07-27T08:52:11.551Z,101050.47
2022-07-27T08:54:40.381Z,101058.03
2022-07-27T08:57:10.880Z,101052.63
2022-07-27T08:59:38.045Z,101054.97
2022-07-27T09:02:10.515Z,101064.00
2022-07-27T09:04:40.164Z,101056.25
2022-07-27T09:07:07.242Z,101061.53
2022-07-27T09:09:55.041Z,101053.78
2022-07-27T09:12:27.455Z,101051.56
2022-07-27T09:15:14.537Z,101055.19
2022-07-27T09:17:48.662Z,101055.69
2022-07-27T09:20:19.314Z,101064.53
2022-07-27T09:22:51.019Z,101051.75
2022-07-27T09:25:44.787Z,101058.66
2022-07-27T09:28:10.707Z,101058.78
2022-07-27T09:30:43.152Z,101053.06
2022-07-27T09:33:10.547Z,101053.47
2022-07-27T09:35:37.935Z,101058.09
2022-07-27T09:38:21.688Z,101057.88
2022-07-27T09:41:08.919Z,101064.44
2022-07-27T09:46:37.914Z,101048.78
2022-07-27T09:49:05.901Z,101057.16
2022-07-27T09:51:58.996Z,101053.84
2022-07-27T09:54:21.212Z,101050.72
2022-07-27T09:57:00.134Z,101052.22
2022-07-27T09:59:28.204Z,101049.09
2022-07-27T10:01:56.300Z,101050.97
2022-07-27T10:04:23.725Z,101050.34
2022-07-27T10:07:02.646Z,101054.25
2022-07-27T10:09:31.808Z,101064.50
2022-07-27T10:11:58.948Z,101045.66
2022-07-27T10:14:26.093Z,101042.97
2022-07-27T10:16:53.815Z,101035.91
2022-07-27T10:19:38.943Z,101037.75
2022-07-27T10:22:06.036Z,101043.66
2022-07-27T10:24:36.184Z,101050.25
2022-07-27T10:27:41.502Z,101049.66
2022-07-27T10:30:09.253Z,101045.63
2022-07-27T10:32:37.124Z,101053.22
2022-07-27T10:35:04.524Z,101048.84
2022-07-27T10:37:33.857Z,101050.13
2022-07-27T10:40:25.893Z,101048.59
2022-07-27T10:43:07.752Z,101051.38
2022-07-27T10:46:00.175Z,101047.72
2022-07-27T10:48:44.203Z,101050.81
2022-07-27T10:51:16.276Z,101042.53
2022-07-27T10:54:10.867Z,101047.44
2022-07-27T10:56:45.678Z,101033.94
2022-07-27T10:59:12.938Z,101035.91
2022-07-27T11:01:59.090Z,101049.09
2022-07-27T11:04:26.338Z,101034.75
2022-07-27T11:07:24.063Z,101038.13
2022-07-27T11:12:34.004Z,101046.47
2022-07-27T11:15:01.071Z,101042.81
2022-07-27T11:17:54.216Z,101050.66
2022-07-27T11:20:22.493Z,101042.31
2022-07-27T11:25:36.654Z,101038.56
2022-07-27T11:28:07.474Z,101043.50
2022-07-27T11:30:34.694Z,101030.47
2022-07-27T11:33:03.934Z,101032.88
2022-07-27T11:35:31.174Z,101036.50
2022-07-27T11:38:02.835Z,101024.28
2022-07-27T11:41:12.637Z,101027.88
2022-07-27T11:43:43.316Z,101032.97
2022-07-27T11:46:15.489Z,101038.31
2022-07-27T11:49:06.672Z,101031.09
2022-07-27T11:51:41.908Z,101031.97
2022-07-27T11:54:19.799Z,101033.66
2022-07-27T11:56:48.971Z,101034.34
2022-07-27T11:59:24.361Z,101040.84
2022-07-27T12:01:56.500Z,101041.25
2022-07-27T12:04:27.481Z,101034.22
2022-07-27T12:06:59.373Z,101039.03
2022-07-27T12:09:27.065Z,101038.00
2022-07-27T12:12:01.279Z,101035.28
2022-07-27T12:14:37.131Z,101044.72
2022-07-27T12:17:15.439Z,101032.56
2022-07-27T12:19:43.360Z,101032.38
2022-07-27T12:22:10.690Z,101026.13
2022-07-27T12:24:40.455Z,101029.41
2022-07-27T12:27:14.827Z,101018.63
2022-07-27T12:30:01.951Z,101021.63
2022-07-27T12:32:31.269Z,101023.75
2022-07-27T12:34:58.856Z,101033.03
2022-07-27T12:37:30.450Z,101020.97
2022-07-27T12:39:57.902Z,101021.81
2022-07-27T12:42:35.939Z,101016.38
2022-07-27T12:45:17.527Z,101022.16
2022-07-27T12:47:44.777Z,101035.72
2022-07-27T12:50:26.309Z,101023.44
2022-07-27T12:52:53.474Z,101020.63
2022-07-27T12:55:21.922Z,101024.53
2022-07-27T12:57:57.524Z,101017.16
2022-07-27T13:00:32.748Z,101013.47
2022-07-27T13:03:01.409Z,101026.59
2022-07-27T13:05:28.880Z,101034.03
2022-07-27T13:07:56.192Z,101024.31
2022-07-27T13:10:23.305Z,101030.47
2022-07-27T13:12:51.017Z,101019.34
2022-07-27T13:15:18.738Z,101021.03
2022-07-27T13:17:47.365Z,101026.19
2022-07-27T13:20:15.862Z,101028.22
2022-07-27T13:22:44.104Z,101022.09
2022-07-27T13:25:16.388Z,101022.00
2022-07-27T13:27:48.516Z,101035.34
2022-07-27T13:30:17.515Z,101014.13
2022-07-27T13:32:46.542Z,101021.91
2022-07-27T13:35:14.668Z,101027.34
2022-07-27T13:37:41.909Z,101018.88
2022-07-27T13:40:09.965Z,101021.63
2022-07-27T13:42:37.552Z,101029.03
2022-07-27T13:45:10.478Z,101029.09
2022-07-27T13:47:39.354Z,101029.84
2022-07-27T13:50:15.141Z,101018.94
2022-07-27T13:52:46.172Z,101026.94
2022-07-27T13:55:15.241Z,101024.66
2022-07-27T13:57:42.388Z,101017.91
2022-07-27T14:00:10.245Z,101024.66
2022-07-27T14:02:37.498Z,101028.53
2022-07-27T14:05:05.939Z,101031.22
2022-07-27T14:07:33.386Z,101039.63
2022-07-27T14:10:19.182Z,101035.44
2022-07-27T14:12:46.348Z,101037.66
2022-07-27T14:15:13.435Z,101038.94
2022-07-27T14:17:40.603Z,101034.22
2022-07-27T14:20:08.740Z,101028.56
2022-07-27T14:22:35.838Z,101029.72
2022-07-27T14:25:03.084Z,101029.66
2022-07-27T14:27:33.745Z,101020.28
2022-07-27T14:30:06.951Z,101022.94
2022-07-27T14:32:35.112Z,101029.72
2022-07-27T14:35:02.673Z,101032.63
2022-07-27T14:37:29.782Z,101026.59
2022-07-27T14:39:56.931Z,101019.41
2022-07-27T14:42:25.099Z,101016.06
2022-07-27T14:44:52.838Z,101014.94
2022-07-27T14:47:20.044Z,101018.16
2022-07-27T14:49:47.227Z,101016.16
2022-07-27T14:52:14.539Z,101016.81
2022-07-27T14:54:42.383Z,101018.03
2022-07-27T14:57:09.897Z,101025.13
2022-07-27T14:59:37.080Z,101015.16
2022-07-27T15:02:04.863Z,101025.94
2022-07-27T15:04:32.009Z,101020.09
2022-07-27T15:06:59.950Z,101023.72
2022-07-27T15:09:30.073Z,101034.66
2022-07-27T15:12:00.866Z,101030.66
2022-07-27T15:14:27.963Z,101030.69
2022-07-27T15:16:55.441Z,101032.41
2022-07-27T15:19:22.852Z,101039.00
2022-07-27T15:21:50.129Z,101039.66
2022-07-27T15:24:17.219Z,101025.69
2022-07-27T15:26:44.377Z,101033.41
2022-07-27T15:29:15.037Z,101031.50
2022-07-27T15:31:43.223Z,101028.66
2022-07-27T15:34:10.525Z,101019.56
2022-07-27T15:36:44.769Z,101015.38
2022-07-27T15:39:14.790Z,101019.38
2022-07-27T15:41:42.228Z,101021.22
2022-07-27T15:44:09.345Z,101013.88
2022-07-27T15:46:36.457Z,101015.28
2022-07-27T15:49:03.712Z,101019.69
2022-07-27T15:51:31.094Z,101014.03
2022-07-27T15:53:58.220Z,101021.53
2022-07-27T15:56:25.403Z,101017.00
2022-07-27T15:58:52.571Z,101019.84
2022-07-27T16:01:20.913Z,101024.50
2022-07-27T16:03:49.581Z,101017.25
2022-07-27T16:06:19.394Z,101017.28
2022-07-27T16:08:47.535Z,101020.81
2022-07-27T16:11:14.661Z,101014.97
2022-07-27T16:13:42.061Z,101014.19
2022-07-27T16:16:27.846Z,101005.44
2022-07-27T16:18:55.290Z,101002.41
2022-07-27T16:21:23.163Z,100999.22
2022-07-27T16:23:51.319Z,101008.50
2022-07-27T16:26:18.397Z,101008.16
2022-07-27T16:28:47.168Z,101007.94
2022-07-27T16:31:15.926Z,101014.19
2022-07-27T16:33:44.404Z,101003.69
2022-07-27T16:36:12.386Z,100991.81
2022-07-27T16:38:49.423Z,100993.16
2022-07-27T16:41:21.822Z,100993.66
2022-07-27T16:43:49.665Z,100991.75
2022-07-27T16:46:17.010Z,100991.22
2022-07-27T16:48:44.221Z,100984.06
2022-07-27T16:51:13.417Z,100984.50
2022-07-27T16:53:45.636Z,100986.84
2022-07-27T16:56:12.912Z,100982.91
2022-07-27T16:58:40.596Z,100971.88
2022-07-27T17:01:08.273Z,100971.03
2022-07-27T17:03:35.753Z,100979.03
2022-07-27T17:06:06.328Z,100973.56
2022-07-27T17:08:36.220Z,100977.16
2022-07-27T17:11:06.090Z,100978.53
2022-07-27T17:13:34.582Z,100975.44
2022-07-27T17:16:06.627Z,100972.94
2022-07-27T17:18:39.902Z,100970.56
2022-07-27T17:21:12.213Z,100962.78
2022-07-27T17:23:40.654Z,100971.06
2022-07-27T17:26:09.062Z,100972.94
2022-07-27T17:28:38.880Z,100968.22
2022-07-27T17:31:07.990Z,100964.38
2022-07-27T17:33:35.400Z,100962.22
2022-07-27T17:36:02.837Z,100966.34
2022-07-27T17:38:29.929Z,100962.91
2022-07-27T17:40:57.053Z,100956.72
2022-07-27T17:43:24.121Z,100971.41
2022-07-27T17:45:51.212Z,100959.63
2022-07-27T17:48:18.624Z,100971.31
2022-07-27T17:50:45.723Z,100969.03
2022-07-27T17:53:12.798Z,100964.94
2022-07-27T17:55:39.912Z,100973.09
2022-07-27T17:58:07.130Z,100972.63
2022-07-27T18:00:34.281Z,100971.97
2022-07-27T18:03:01.702Z,100971.13
2022-07-27T18:05:28.820Z,100974.13
2022-07-27T18:07:55.926Z,100969.91
2022-07-27T18:10:23.484Z,100973.31
2022-07-27T18:12:50.567Z,100981.47
2022-07-27T18:15:36.438Z,100977.69
2022-07-27T18:18:04.369Z,100977.13
2022-07-27T18:20:31.704Z,100983.59
2022-07-27T18:22:58.997Z,100987.00
2022-07-27T18:25:27.011Z,100986.28
2022-07-27T18:27:54.241Z,100988.53
2022-07-27T18:30:21.296Z,100993.84
2022-07-27T18:32:48.552Z,100987.25
2022-07-27T18:35:15.948Z,100986.09
2022-07-27T18:37:44.254Z,100991.00
2022-07-27T18:40:11.643Z,100987.50
2022-07-27T18:42:39.390Z,100989.59
2022-07-27T18:45:07.363Z,100993.06
2022-07-27T18:47:34.543Z,100989.97
2022-07-27T18:50:01.910Z,100996.72
2022-07-27T18:52:28.979Z,101003.41
2022-07-27T18:54:56.061Z,101001.16
2022-07-27T18:57:23.185Z,101005.94
2022-07-27T18:59:50.691Z,101004.09
2022-07-27T19:02:17.930Z,101012.75
2022-07-27T19:04:45.013Z,101011.47
2022-07-27T19:07:14.371Z,101017.16
2022-07-27T19:09:42.984Z,101011.34
2022-07-27T19:12:10.285Z,101017.97
2022-07-27T19:14:37.532Z,101018.31
2022-07-27T19:17:05.298Z,101029.28
2022-07-27T19:19:32.583Z,101028.00
2022-07-27T19:22:00.147Z,101023.75
2022-07-27T19:24:27.236Z,101029.47
2022-07-27T19:26:54.320Z,101026.34
2022-07-27T19:29:22.713Z,101031.09
2022-07-27T19:31:50.265Z,101036.69
2022-07-27T19:34:17.526Z,101041.69
2022-07-27T19:36:45.070Z,101033.25
2022-07-27T19:39:12.641Z,101037.13
2022-07-27T19:41:40.327Z,101036.69
2022-07-27T19:44:08.064Z,101037.91
2022-07-27T19:46:35.444Z,101047.28
2022-07-27T19:49:02.646Z,101051.25
2022-07-27T19:51:29.856Z,101046.44
2022-07-27T19:53:57.067Z,101049.63
2022-07-27T19:56:24.224Z,101051.06
2022-07-27T19:58:51.345Z,101063.06
2022-07-27T20:01:18.568Z,101068.03
2022-07-27T20:03:52.162Z,101063.22
2022-07-27T20:06:25.312Z,101071.56
2022-07-27T20:08:59.362Z,101077.25
2022-07-27T20:11:29.835Z,101080.28
2022-07-27T20:13:59.100Z,101084.03
2022-07-27T20:16:30.282Z,101077.25
2022-07-27T20:18:58.236Z,101086.34
2022-07-27T20:21:25.327Z,101090.94
2022-07-27T20:23:52.817Z,101095.69
2022-07-27T20:26:20.447Z,101102.91
2022-07-27T20:28:49.673Z,101097.84
2022-07-27T20:31:17.139Z,101100.75
2022-07-27T20:33:44.311Z,101103.50
2022-07-27T20:36:11.451Z,101103.66
2022-07-27T20:38:38.641Z,101102.19
2022-07-27T20:41:05.731Z,101103.28
2022-07-27T20:43:32.904Z,101108.00
2022-07-27T20:46:00.044Z,101107.63
2022-07-27T20:48:27.202Z,101113.19
2022-07-27T20:50:54.333Z,101112.59
2022-07-27T20:53:21.435Z,101109.31
2022-07-27T20:55:48.569Z,101112.19
2022-07-27T20:58:15.669Z,101115.09
2022-07-27T21:00:42.928Z,101116.31
2022-07-27T21:03:10.159Z,101117.47
2022-07-27T21:05:37.261Z,101116.84
2022-07-27T21:08:04.527Z,101126.16
2022-07-27T21:10:31.626Z,101125.66
2022-07-27T21:12:58.687Z,101129.63
2022-07-27T21:15:33.995Z,101121.03
2022-07-27T21:18:02.216Z,101125.75
2022-07-27T21:20:29.402Z,101129.59
2022-07-27T21:23:15.105Z,101132.72
2022-07-27T21:25:43.867Z,101139.84
2022-07-27T21:28:13.248Z,101132.22
2022-07-27T21:30:44.392Z,101137.88
2022-07-27T21:33:11.562Z,101132.78
2022-07-27T21:35:38.739Z,101138.44
2022-07-27T21:38:06.077Z,101135.28
2022-07-27T21:40:33.260Z,101149.72
2022-07-27T21:43:01.188Z,101143.06
2022-07-27T21:45:28.419Z,101145.09
2022-07-27T21:47:55.623Z,101148.81
2022-07-27T21:50:22.730Z,101147.34
2022-07-27T21:52:51.195Z,101154.78
2022-07-27T21:55:22.890Z,101160.31
2022-07-27T21:57:50.978Z,101156.22
2022-07-27T22:00:25.394Z,101161.84
2022-07-27T22:02:52.532Z,101163.13
2022-07-27T22:05:21.657Z,101166.06
2022-07-27T22:07:52.002Z,101165.44
2022-07-27T22:10:19.260Z,101169.16
2022-07-27T22:12:46.488Z,101160.69
2022-07-27T22:15:13.582Z,101166.22
2022-07-27T22:17:50.142Z,101172.59
2022-07-27T22:20:19.025Z,101175.47
2022-07-27T22:22:46.292Z,101169.63
2022-07-27T22:25:13.407Z,101167.31
2022-07-27T22:27:40.687Z,101166.66
2022-07-27T22:30:08.128Z,101165.06
2022-07-27T22:32:35.444Z,101165.38
2022-07-27T22:35:02.786Z,101167.41
2022-07-27T22:37:30.157Z,101177.38
2022-07-27T22:39:57.264Z,101168.91
2022-07-27T22:42:24.349Z,101171.88
2022-07-27T22:44:51.444Z,101178.22
2022-07-27T22:47:18.554Z,101178.44
2022-07-27T22:49:45.757Z,101175.16
2022-07-27T22:52:12.891Z,101181.63
2022-07-27T22:54:40.130Z,101180.97
2022-07-27T22:57:08.103Z,101175.03
2022-07-27T22:59:35.391Z,101177.03
2022-07-27T23:02:02.598Z,101175.44
2022-07-27T23:04:29.981Z,101179.16
2022-07-27T23:06:57.769Z,101180.31
2022-07-27T23:09:25.270Z,101179.66
2022-07-27T23:11:52.732Z,101182.53
2022-07-27T23:14:19.818Z,101180.06
2022-07-27T23:16:46.903Z,101180.28
2022-07-27T23:19:14.044Z,101179.53
2022-07-27T23:21:42.338Z,101176.25
2022-07-27T23:24:11.114Z,101183.44
2022-07-27T23:26:38.922Z,101185.34
2022-07-27T23:29:06.089Z,101185.53
2022-07-27T23:31:33.546Z,101190.91
2022-07-27T23:34:00.688Z,101196.50
2022-07-27T23:36:27.772Z,101194.09
2022-07-27T23:38:54.868Z,101194.16
2022-07-27T23:41:21.992Z,101197.00
2022-07-27T23:43:49.115Z,101198.81
2022-07-27T23:46:16.256Z,101195.53
2022-07-27T23:48:43.805Z,101193.91
2022-07-27T23:51:16.769Z,101193.25
2022-07-27T23:53:43.900Z,101195.19
2022-07-27T23:56:10.984Z,101197.06
2022-07-27T23:58:41.008Z,101201.63
